Time,TemperatureF,DewpointF,PressureIn,WindDirection,WindDirectionDegrees,WindSpeedMPH,WindSpeedGustMPH,Humidity,HourlyPrecipIn,Conditions,Clouds,dailyrainin,SolarRadiationWatts/m^2,SoftwareType,DateUTC
2013-07-18 02:01:00,63.0,48.0,-100.00,SE,128,4.0,9.0,57,-99.99,,,0.00,0.800000,,2013-07-18 10:01:00,
2013-07-18 02:11:00,63.0,48.0,-100.00,SE,128,4.0,9.0,57,-99.99,,,0.00,0.800000,,2013-07-18 10:11:00,
2013-07-18 02:21:00,63.0,48.0,-100.00,SE,128,4.0,9.0,57,-99.99,,,0.00,0.800000,,2013-07-18 10:21:00,
2013-07-18 04:52:00,63.0,47.0,-100.00,East,92,4.0,12.0,56,-99.99,,,0.00,0.800000,,2013-07-18 12:52:00,
2013-07-18 05:01:00,63.0,47.0,-100.00,East,92,4.0,12.0,56,-99.99,,,0.00,0.800000,,2013-07-18 13:01:00,
2013-07-18 05:11:00,63.0,47.0,-100.00,East,92,4.0,12.0,56,-99.99,,,0.00,0.800000,,2013-07-18 13:11:00,
2013-07-18 05:22:00,63.0,47.0,-100.00,East,92,4.0,12.0,56,-99.99,,,0.00,0.800000,,2013-07-18 13:22:00,
2013-07-18 06:02:00,62.0,47.0,-100.00,WSW,253,9.0,12.0,59,0.00,,,0.00,3.300000,,2013-07-18 14:02:00,
2013-07-18 06:11:00,62.0,47.0,-100.00,WSW,253,9.0,12.0,59,0.00,,,0.00,3.300000,,2013-07-18 14:11:00,
2013-07-18 06:22:00,62.0,47.0,-100.00,WSW,253,9.0,12.0,59,0.00,,,0.00,3.300000,,2013-07-18 14:22:00,
2013-07-18 06:53:00,62.0,47.0,-100.00,SW,221,6.0,21.0,58,0.00,,,0.00,16.799999,,2013-07-18 14:53:00,
2013-07-18 07:01:00,62.0,47.0,-100.00,SW,221,6.0,21.0,58,0.00,,,0.00,16.799999,,2013-07-18 15:01:00,
2013-07-18 07:11:00,62.0,47.0,-100.00,SW,221,6.0,21.0,58,0.00,,,0.00,16.799999,,2013-07-18 15:11:00,
2013-07-18 07:22:00,62.0,47.0,-100.00,SW,221,6.0,21.0,58,0.00,,,0.00,16.799999,,2013-07-18 15:22:00,
2013-07-18 07:53:00,64.0,47.0,-100.00,West,268,6.0,15.0,54,0.00,,,0.00,169.199997,,2013-07-18 15:53:00,
2013-07-18 08:01:00,64.0,47.0,-100.00,West,268,6.0,15.0,54,0.00,,,0.00,169.199997,,2013-07-18 16:01:00,
2013-07-18 08:11:00,64.0,47.0,-100.00,West,268,6.0,15.0,54,0.00,,,0.00,169.199997,,2013-07-18 16:11:00,
2013-07-18 08:22:00,64.0,47.0,-100.00,West,268,6.0,15.0,54,0.00,,,0.00,169.199997,,2013-07-18 16:22:00,
2013-07-18 08:52:00,68.0,49.0,-100.00,ESE,115,5.0,13.0,50,0.00,,,0.00,300.100006,,2013-07-18 16:52:00,
2013-07-18 09:02:00,68.0,49.0,-100.00,ESE,115,5.0,13.0,50,0.00,,,0.00,300.100006,,2013-07-18 17:02:00,
2013-07-18 09:11:00,68.0,49.0,-100.00,ESE,115,5.0,13.0,50,0.00,,,0.00,300.100006,,2013-07-18 17:11:00,
2013-07-18 09:22:00,68.0,49.0,-100.00,ESE,115,5.0,13.0,50,0.00,,,0.00,300.100006,,2013-07-18 17:22:00,
2013-07-18 10:01:00,69.0,51.0,-100.00,SE,125,0.0,-999.0,52,0.00,,,0.00,432.299988,,2013-07-18 18:01:00,
2013-07-18 10:11:00,69.0,51.0,-100.00,SE,125,0.0,-999.0,52,0.00,,,0.00,432.299988,,2013-07-18 18:11:00,
2013-07-18 10:22:00,69.0,51.0,-100.00,SE,125,0.0,-999.0,52,0.00,,,0.00,432.299988,,2013-07-18 18:22:00,
2013-07-18 10:52:00,67.0,50.0,-100.00,WSW,241,0.0,5.0,54,0.00,,,0.00,612.400024,,2013-07-18 18:52:00,
2013-07-18 11:01:00,67.0,50.0,-100.00,WSW,241,0.0,5.0,54,0.00,,,0.00,612.400024,,2013-07-18 19:01:00,
2013-07-18 11:11:00,67.0,50.0,-100.00,WSW,241,0.0,5.0,54,0.00,,,0.00,612.400024,,2013-07-18 19:11:00,
2013-07-18 11:22:00,67.0,50.0,-100.00,WSW,241,0.0,5.0,54,0.00,,,0.00,612.400024,,2013-07-18 19:22:00,
2013-07-18 12:52:00,71.0,49.0,-100.00,ESE,105,0.0,-999.0,46,-99.99,,,0.00,770.299988,,2013-07-18 20:52:00,
2013-07-18 13:01:00,71.0,49.0,-100.00,ESE,105,0.0,-999.0,46,-99.99,,,0.00,770.299988,,2013-07-18 21:01:00,
2013-07-18 13:11:00,71.0,49.0,-100.00,ESE,105,0.0,-999.0,46,-99.99,,,0.00,770.299988,,2013-07-18 21:11:00,
2013-07-18 13:22:00,71.0,49.0,-100.00,ESE,105,0.0,-999.0,46,-99.99,,,0.00,770.299988,,2013-07-18 21:22:00,
2013-07-18 13:52:00,75.0,50.0,-100.00,WSW,258,1.0,8.0,42,0.00,,,0.00,798.700012,,2013-07-18 21:52:00,
2013-07-18 14:01:00,75.0,50.0,-100.00,WSW,258,1.0,8.0,42,0.00,,,0.00,798.700012,,2013-07-18 22:01:00,
2013-07-18 14:11:00,75.0,50.0,-100.00,WSW,258,1.0,8.0,42,0.00,,,0.00,798.700012,,2013-07-18 22:11:00,
2013-07-18 14:22:00,75.0,50.0,-100.00,WSW,258,1.0,8.0,42,0.00,,,0.00,798.700012,,2013-07-18 22:22:00,
2013-07-18 14:53:00,78.0,52.0,-100.00,SSW,213,2.0,6.0,40,0.00,,,0.00,822.400024,,2013-07-18 22:53:00,
2013-07-18 15:02:00,78.0,52.0,-100.00,SSW,213,2.0,6.0,40,0.00,,,0.00,822.400024,,2013-07-18 23:02:00,
2013-07-18 15:11:00,78.0,52.0,-100.00,SSW,213,2.0,6.0,40,0.00,,,0.00,822.400024,,2013-07-18 23:11:00,
2013-07-18 15:22:00,78.0,52.0,-100.00,SSW,213,2.0,6.0,40,0.00,,,0.00,822.400024,,2013-07-18 23:22:00,
2013-07-18 15:52:00,74.0,51.0,-100.00,NNE,18,1.0,11.0,45,0.00,,,0.00,799.599976,,2013-07-18 23:52:00,
2013-07-18 16:01:00,74.0,51.0,-100.00,NNE,18,1.0,11.0,45,0.00,,,0.00,799.599976,,2013-07-19 00:01:00,
2013-07-18 16:11:00,74.0,51.0,-100.00,NNE,18,1.0,11.0,45,0.00,,,0.00,799.599976,,2013-07-19 00:11:00,
2013-07-18 16:22:00,74.0,51.0,-100.00,NNE,18,1.0,11.0,45,0.00,,,0.00,799.599976,,2013-07-19 00:22:00,
2013-07-18 16:52:00,70.0,50.0,-100.00,NW,305,1.0,5.0,49,0.00,,,0.00,258.600006,,2013-07-19 00:52:00,
2013-07-18 17:01:00,70.0,50.0,-100.00,NW,305,1.0,5.0,49,0.00,,,0.00,258.600006,,2013-07-19 01:01:00,
2013-07-18 17:11:00,70.0,50.0,-100.00,NW,305,1.0,5.0,49,0.00,,,0.00,258.600006,,2013-07-19 01:11:00,
2013-07-18 17:21:00,70.0,50.0,-100.00,NW,305,1.0,5.0,49,0.00,,,0.00,258.600006,,2013-07-19 01:21:00,
2013-07-18 17:52:00,70.0,50.0,-100.00,WSW,239,1.0,7.0,49,0.00,,,-99.99,179.600006,,2013-07-19 01:52:00,
2013-07-18 18:01:00,70.0,50.0,-100.00,WSW,239,1.0,7.0,49,0.00,,,-99.99,179.600006,,2013-07-19 02:01:00,
2013-07-18 18:11:00,70.0,50.0,-100.00,WSW,239,1.0,7.0,49,0.00,,,-99.99,179.600006,,2013-07-19 02:11:00,
2013-07-18 18:22:00,70.0,50.0,-100.00,WSW,239,1.0,7.0,49,0.00,,,-99.99,179.600006,,2013-07-19 02:22:00,
2013-07-18 18:52:00,69.0,51.0,-100.00,SW,216,0.0,6.0,53,0.00,,,0.00,268.700012,,2013-07-19 02:52:00,
2013-07-18 19:01:00,69.0,51.0,-100.00,SW,216,0.0,6.0,53,0.00,,,0.00,268.700012,,2013-07-19 03:01:00,
2013-07-18 19:11:00,69.0,51.0,-100.00,SW,216,0.0,6.0,53,0.00,,,0.00,268.700012,,2013-07-19 03:11:00,
2013-07-18 19:22:00,69.0,51.0,-100.00,SW,216,0.0,6.0,53,0.00,,,0.00,268.700012,,2013-07-19 03:22:00,
2013-07-18 19:52:00,72.0,52.0,-100.00,WSW,246,1.0,2.0,49,0.00,,,0.00,270.299988,,2013-07-19 03:52:00,
2013-07-18 20:02:00,72.0,52.0,-100.00,WSW,246,1.0,2.0,49,0.00,,,0.00,270.299988,,2013-07-19 04:02:00,
2013-07-18 20:12:00,72.0,52.0,-100.00,WSW,246,1.0,2.0,49,0.00,,,0.00,270.299988,,2013-07-19 04:12:00,
2013-07-18 20:21:00,72.0,52.0,-100.00,WSW,246,1.0,2.0,49,0.00,,,0.00,270.299988,,2013-07-19 04:21:00,
2013-07-18 20:52:00,67.0,52.0,-100.00,SSE,168,0.0,17.0,59,0.00,,,0.00,287.299988,,2013-07-19 04:52:00,
2013-07-18 21:02:00,67.0,52.0,-100.00,SSE,168,0.0,17.0,59,0.00,,,0.00,287.299988,,2013-07-19 05:02:00,
2013-07-18 21:11:00,67.0,52.0,-100.00,SSE,168,0.0,17.0,59,0.00,,,0.00,287.299988,,2013-07-19 05:11:00,
2013-07-18 21:21:00,67.0,52.0,-100.00,SSE,168,0.0,17.0,59,0.00,,,0.00,287.299988,,2013-07-19 05:21:00,
2013-07-18 22:01:00,64.0,52.0,-100.00,SE,138,1.0,8.0,64,0.00,,,0.00,137.600006,,2013-07-19 06:01:00,
2013-07-18 22:11:00,64.0,52.0,-100.00,SE,138,1.0,8.0,64,0.00,,,0.00,137.600006,,2013-07-19 06:11:00,
2013-07-18 22:22:00,64.0,52.0,-100.00,SE,138,1.0,8.0,64,0.00,,,0.00,137.600006,,2013-07-19 06:22:00,
2013-07-18 22:53:00,62.0,49.0,-100.00,East,80,4.0,8.0,62,0.00,,,0.00,39.200001,,2013-07-19 06:53:00,
2013-07-18 23:01:00,62.0,49.0,-100.00,East,80,4.0,8.0,62,0.00,,,0.00,39.200001,,2013-07-19 07:01:00,
2013-07-18 23:12:00,62.0,49.0,-100.00,East,80,4.0,8.0,62,0.00,,,0.00,39.200001,,2013-07-19 07:12:00,
2013-07-18 23:22:00,62.0,49.0,-100.00,East,80,4.0,8.0,62,0.00,,,0.00,39.200001,,2013-07-19 07:22:00,
2013-07-18 23:53:00,60.0,49.0,-100.00,NE,49,1.0,56.0,67,0.00,,,-99.99,4.900000,,2013-07-19 07:53:00,